createdAt,value
2018-08-22T00:00:57.055Z,9.90
2018-08-22T00:03:25.983Z,8.83
2018-08-22T00:05:54.512Z,11.13
2018-08-22T00:08:53.510Z,7.93
2018-08-22T00:11:22.282Z,9.17
2018-08-22T00:13:50.849Z,9.87
2018-08-22T00:16:19.440Z,10.00
2018-08-22T00:18:48.298Z,11.63
2018-08-22T00:21:16.816Z,7.50
2018-08-22T00:23:45.325Z,8.00
2018-08-22T00:26:14.153Z,7.87
2018-08-22T00:28:42.711Z,7.80
2018-08-22T00:31:11.366Z,15.20
2018-08-22T00:33:46.486Z,36.10
2018-08-22T00:36:15.134Z,8.90
2018-08-22T00:38:43.604Z,14.93
2018-08-22T00:41:12.528Z,8.07
2018-08-22T00:43:41.020Z,9.63
2018-08-22T00:46:09.532Z,8.20
2018-08-22T00:48:38.270Z,17.20
2018-08-22T00:51:06.750Z,7.30
2018-08-22T00:53:35.462Z,7.90
2018-08-22T00:56:05.360Z,10.67
2018-08-22T00:58:34.024Z,7.90
2018-08-22T01:01:02.742Z,11.47
2018-08-22T01:03:31.553Z,7.90
2018-08-22T01:06:00.357Z,7.40
2018-08-22T01:08:28.835Z,9.23
2018-08-22T01:10:57.588Z,6.93
2018-08-22T01:13:26.120Z,9.00
2018-08-22T01:15:54.614Z,8.07
2018-08-22T01:18:23.582Z,11.00
2018-08-22T01:20:52.094Z,8.57
2018-08-22T01:23:20.634Z,20.67
2018-08-22T01:25:49.943Z,15.17
2018-08-22T01:28:19.452Z,9.17
2018-08-22T01:30:48.697Z,15.23
2018-08-22T01:33:17.464Z,8.83
2018-08-22T01:35:47.078Z,8.53
2018-08-22T01:38:15.556Z,7.87
2018-08-22T01:40:44.383Z,10.50
2018-08-22T01:43:12.967Z,7.87
2018-08-22T01:45:41.507Z,10.73
2018-08-22T01:48:10.271Z,8.50
2018-08-22T01:50:39.627Z,12.37
2018-08-22T01:53:08.079Z,9.67
2018-08-22T01:55:36.952Z,11.60
2018-08-22T01:58:06.251Z,11.10
2018-08-22T02:00:34.779Z,10.67
2018-08-22T02:05:42.765Z,10.10
2018-08-22T02:08:11.942Z,14.73
2018-08-22T02:10:40.592Z,9.57
2018-08-22T02:13:09.581Z,9.63
2018-08-22T02:15:38.350Z,11.63
2018-08-22T02:18:06.995Z,11.73
2018-08-22T02:20:35.504Z,10.10
2018-08-22T02:23:04.047Z,11.23
2018-08-22T02:25:33.036Z,15.10
2018-08-22T02:28:01.564Z,8.20
2018-08-22T02:30:30.060Z,9.00
2018-08-22T02:32:58.540Z,11.17
2018-08-22T02:35:27.038Z,8.03
2018-08-22T02:37:55.613Z,9.70
2018-08-22T02:40:24.276Z,10.03
2018-08-22T02:42:53.054Z,14.50
2018-08-22T02:45:21.576Z,8.33
2018-08-22T02:47:50.089Z,13.70
2018-08-22T02:50:20.032Z,10.37
2018-08-22T02:52:48.525Z,9.17
2018-08-22T02:55:17.095Z,8.80
2018-08-22T02:57:46.108Z,9.93
2018-08-22T03:00:15.667Z,9.50
2018-08-22T03:02:44.196Z,9.30
2018-08-22T03:05:13.014Z,12.73
2018-08-22T03:07:41.563Z,8.47
2018-08-22T03:10:10.051Z,10.03
2018-08-22T03:12:38.868Z,13.87
2018-08-22T03:15:07.355Z,9.47
2018-08-22T03:17:35.887Z,8.03
2018-08-22T03:20:06.441Z,9.83
2018-08-22T03:22:34.967Z,9.60
2018-08-22T03:25:03.499Z,15.80
2018-08-22T03:27:32.237Z,8.80
2018-08-22T03:30:00.701Z,7.67
2018-08-22T03:32:29.206Z,8.90
2018-08-22T03:34:57.988Z,8.83
2018-08-22T03:37:26.543Z,12.80
2018-08-22T03:39:55.173Z,7.30
2018-08-22T03:42:24.255Z,9.13
2018-08-22T03:44:52.806Z,7.87
2018-08-22T03:47:21.606Z,8.67
2018-08-22T03:49:50.101Z,14.93
2018-08-22T03:52:19.387Z,12.90
2018-08-22T03:54:47.915Z,8.50
2018-08-22T03:57:16.685Z,29.03
2018-08-22T03:59:45.175Z,14.43
2018-08-22T04:02:13.650Z,8.60
2018-08-22T04:04:42.172Z,7.90
2018-08-22T04:07:10.675Z,18.23
2018-08-22T04:09:39.575Z,8.27
2018-08-22T04:12:08.113Z,11.80
2018-08-22T04:14:36.700Z,11.70
2018-08-22T04:17:06.008Z,13.67
2018-08-22T04:19:34.555Z,16.37
2018-08-22T04:22:04.025Z,8.40
2018-08-22T04:24:32.903Z,8.97
2018-08-22T04:27:01.511Z,15.70
2018-08-22T04:29:30.126Z,13.20
2018-08-22T04:31:58.904Z,17.93
2018-08-22T04:34:27.418Z,13.27
2018-08-22T04:36:55.977Z,17.47
2018-08-22T04:39:24.943Z,8.97
2018-08-22T04:41:53.555Z,21.57
2018-08-22T04:44:22.136Z,9.33
2018-08-22T04:46:50.957Z,15.73
2018-08-22T04:49:20.036Z,13.33
2018-08-22T04:51:48.531Z,80.53
2018-08-22T04:54:18.791Z,39.23
2018-08-22T04:56:47.291Z,36.57
2018-08-22T04:59:15.840Z,33.23
2018-08-22T05:01:52.249Z,42.20
2018-08-22T05:04:21.067Z,35.93
2018-08-22T05:06:49.612Z,36.87
2018-08-22T05:09:18.483Z,42.20
2018-08-22T05:11:47.034Z,32.37
2018-08-22T05:14:15.615Z,34.23
2018-08-22T05:16:44.431Z,29.70
2018-08-22T05:19:12.979Z,22.47
2018-08-22T05:21:41.503Z,25.13
2018-08-22T05:24:10.340Z,41.67
2018-08-22T05:26:38.901Z,27.70
2018-08-22T05:29:07.420Z,26.33
2018-08-22T05:31:36.371Z,26.53
2018-08-22T05:34:05.875Z,25.80
2018-08-22T05:36:34.542Z,46.53
2018-08-22T05:39:03.619Z,15.30
2018-08-22T05:41:32.147Z,29.37
2018-08-22T05:44:00.772Z,23.33
2018-08-22T05:46:29.652Z,17.87
2018-08-22T05:48:58.235Z,24.47
2018-08-22T05:51:26.796Z,19.97
2018-08-22T05:53:55.931Z,21.60
2018-08-22T05:56:24.491Z,26.50
2018-08-22T05:58:53.083Z,27.37
2018-08-22T06:01:21.926Z,18.63
2018-08-22T06:03:50.448Z,30.10
2018-08-22T06:06:19.060Z,24.90
2018-08-22T06:08:48.055Z,31.87
2018-08-22T06:11:16.694Z,33.57
2018-08-22T06:13:45.308Z,22.00
2018-08-22T06:16:14.211Z,27.00
2018-08-22T06:18:42.776Z,16.60
2018-08-22T06:21:11.341Z,29.23
2018-08-22T06:23:40.328Z,26.23
2018-08-22T06:26:08.959Z,23.00
2018-08-22T06:28:37.519Z,26.77
2018-08-22T06:31:06.372Z,24.77
2018-08-22T06:33:35.630Z,38.07
2018-08-22T06:36:04.882Z,37.67
2018-08-22T06:38:35.075Z,37.93
2018-08-22T06:41:05.035Z,14.20
2018-08-22T06:43:33.635Z,30.10
2018-08-22T06:46:04.467Z,40.63
2018-08-22T06:48:34.019Z,33.37
2018-08-22T06:51:02.698Z,27.57
2018-08-22T06:53:32.264Z,24.43
2018-08-22T06:56:00.851Z,28.47
2018-08-22T06:58:29.421Z,33.23
2018-08-22T07:00:58.430Z,28.33
2018-08-22T07:03:27.026Z,29.97
2018-08-22T07:05:55.567Z,25.90
2018-08-22T07:08:24.381Z,34.10
2018-08-22T07:10:52.986Z,25.70
2018-08-22T07:13:21.534Z,22.77
2018-08-22T07:15:50.486Z,29.57
2018-08-22T07:18:19.201Z,27.37
2018-08-22T07:20:48.092Z,26.83
2018-08-22T07:23:17.326Z,23.07
2018-08-22T07:25:45.849Z,20.13
2018-08-22T07:28:14.424Z,21.73
2018-08-22T07:30:43.436Z,18.87
2018-08-22T07:33:11.984Z,22.17
2018-08-22T07:35:40.583Z,19.63
2018-08-22T07:38:09.543Z,22.63
2018-08-22T07:40:38.314Z,14.20
2018-08-22T07:43:07.280Z,20.47
2018-08-22T07:45:36.156Z,21.53
2018-08-22T07:48:05.776Z,21.10
2018-08-22T07:50:34.760Z,22.30
2018-08-22T07:53:04.747Z,15.50
2018-08-22T07:55:38.305Z,19.20
2018-08-22T07:58:07.013Z,17.77
2018-08-22T08:00:35.975Z,11.50
2018-08-22T08:03:04.519Z,17.33
2018-08-22T08:05:35.081Z,16.67
2018-08-22T08:08:04.829Z,14.37
2018-08-22T08:10:34.552Z,18.07
2018-08-22T08:13:03.817Z,13.50
2018-08-22T08:15:33.042Z,15.10
2018-08-22T08:18:03.251Z,13.60
2018-08-22T08:20:31.767Z,12.07
2018-08-22T08:23:00.776Z,11.67
2018-08-22T08:25:29.396Z,16.50
2018-08-22T08:27:57.920Z,18.13
2018-08-22T08:30:26.764Z,11.73
2018-08-22T08:32:55.948Z,13.60
2018-08-22T08:35:24.778Z,10.90
2018-08-22T08:37:53.674Z,10.23
2018-08-22T08:40:22.195Z,13.00
2018-08-22T08:42:50.928Z,9.70
2018-08-22T08:45:19.783Z,11.83
2018-08-22T08:47:48.354Z,9.30
2018-08-22T08:50:16.909Z,9.30
2018-08-22T08:52:45.739Z,11.60
2018-08-22T08:55:14.375Z,22.90
2018-08-22T08:57:42.997Z,11.17
2018-08-22T09:00:11.802Z,8.70
2018-08-22T09:02:40.406Z,9.60
2018-08-22T09:05:09.045Z,7.70
2018-08-22T09:07:37.947Z,12.33
2018-08-22T09:10:06.915Z,10.37
2018-08-22T09:12:37.284Z,8.07
2018-08-22T09:15:06.756Z,13.20
2018-08-22T09:17:35.259Z,7.63
2018-08-22T09:20:04.932Z,7.70
2018-08-22T09:22:33.791Z,8.07
2018-08-22T09:25:02.295Z,12.50
2018-08-22T09:27:30.813Z,10.83
2018-08-22T09:29:59.607Z,12.53
2018-08-22T09:32:28.118Z,8.43
2018-08-22T09:34:56.667Z,16.97
2018-08-22T09:37:25.516Z,8.43
2018-08-22T09:39:54.254Z,10.90
2018-08-22T09:42:22.725Z,12.23
2018-08-22T09:44:51.435Z,7.60
2018-08-22T09:47:20.131Z,11.00
2018-08-22T09:49:48.813Z,16.33
2018-08-22T09:52:17.680Z,11.53
2018-08-22T09:54:59.787Z,11.63
2018-08-22T09:57:29.336Z,13.90
2018-08-22T09:59:57.929Z,11.00
2018-08-22T10:02:26.628Z,19.77
2018-08-22T10:04:55.822Z,5.33
2018-08-22T10:07:24.818Z,8.60
2018-08-22T10:09:53.349Z,14.10
2018-08-22T10:12:22.416Z,9.87
2018-08-22T10:14:51.420Z,7.53
2018-08-22T10:17:19.960Z,15.03
2018-08-22T10:19:48.757Z,14.17
2018-08-22T10:22:17.306Z,10.60
2018-08-22T10:24:45.873Z,13.13
2018-08-22T10:27:14.691Z,6.77
2018-08-22T10:29:43.227Z,11.00
2018-08-22T10:32:11.755Z,5.80
2018-08-22T10:34:40.598Z,7.03
2018-08-22T10:37:09.303Z,11.87
2018-08-22T10:39:37.822Z,13.37
2018-08-22T10:42:06.720Z,9.00
2018-08-22T10:44:35.401Z,9.43
2018-08-22T10:47:03.886Z,11.90
2018-08-22T10:49:32.823Z,6.57
2018-08-22T10:52:03.388Z,10.77
2018-08-22T10:54:32.156Z,9.60
2018-08-22T10:57:01.011Z,11.63
2018-08-22T10:59:29.637Z,6.27
2018-08-22T11:01:58.280Z,7.57
2018-08-22T11:04:27.155Z,12.50
2018-08-22T11:06:55.775Z,9.13
2018-08-22T11:09:24.575Z,4.93
2018-08-22T11:11:53.389Z,5.77
2018-08-22T11:14:21.945Z,9.60
2018-08-22T11:16:51.144Z,8.73
2018-08-22T11:19:19.981Z,9.90
2018-08-22T11:21:59.508Z,6.33
2018-08-22T11:24:39.111Z,6.57
2018-08-22T11:27:18.661Z,13.07
2018-08-22T11:29:58.659Z,8.60
2018-08-22T11:32:38.164Z,6.03
2018-08-22T11:35:05.675Z,10.27
2018-08-22T11:37:34.349Z,6.20
2018-08-22T11:40:03.804Z,8.27
2018-08-22T11:42:32.836Z,17.07
2018-08-22T11:45:01.771Z,8.27
2018-08-22T11:47:30.334Z,8.00
2018-08-22T11:49:59.195Z,19.10
2018-08-22T11:52:27.753Z,5.70
2018-08-22T11:54:56.898Z,9.73
2018-08-22T11:57:25.798Z,11.20
2018-08-22T11:59:54.428Z,12.60
2018-08-22T12:02:23.031Z,7.20
2018-08-22T12:04:51.819Z,8.10
2018-08-22T12:07:20.419Z,10.73
2018-08-22T12:09:48.965Z,5.53
2018-08-22T12:12:18.158Z,10.97
2018-08-22T12:14:46.729Z,6.47
2018-08-22T12:17:15.326Z,7.00
2018-08-22T12:19:44.340Z,22.83
2018-08-22T12:22:12.920Z,13.73
2018-08-22T12:24:41.520Z,8.57
2018-08-22T12:27:10.637Z,9.97
2018-08-22T12:29:39.349Z,8.03
2018-08-22T12:32:07.981Z,6.90
2018-08-22T12:34:36.840Z,5.33
2018-08-22T12:37:05.756Z,4.63
2018-08-22T12:39:34.376Z,6.40
2018-08-22T12:42:05.560Z,9.03
2018-08-22T12:44:34.460Z,5.33
2018-08-22T12:47:04.623Z,5.50
2018-08-22T12:49:35.305Z,8.20
2018-08-22T12:52:05.839Z,6.90
2018-08-22T12:54:35.688Z,9.80
2018-08-22T12:57:04.951Z,10.03
2018-08-22T12:59:33.802Z,4.40
2018-08-22T13:02:04.296Z,5.53
2018-08-22T13:04:34.589Z,5.43
2018-08-22T13:07:03.270Z,4.40
2018-08-22T13:09:32.094Z,3.90
2018-08-22T13:12:00.917Z,3.80
2018-08-22T13:14:29.431Z,4.60
2018-08-22T13:16:58.122Z,6.77
2018-08-22T13:19:26.896Z,4.97
2018-08-22T13:21:55.467Z,4.87
2018-08-22T13:24:24.035Z,4.90
2018-08-22T13:26:52.854Z,9.63
2018-08-22T13:29:21.495Z,4.77
2018-08-22T13:31:51.056Z,4.60
2018-08-22T13:34:19.921Z,5.17
2018-08-22T13:36:49.560Z,3.97
2018-08-22T13:39:29.517Z,6.20
2018-08-22T13:42:12.472Z,5.47
2018-08-22T13:44:42.320Z,5.10
2018-08-22T13:47:11.431Z,7.80
2018-08-22T13:49:40.261Z,4.47
2018-08-22T13:52:08.861Z,4.67
2018-08-22T13:54:38.286Z,3.80
2018-08-22T13:57:07.016Z,4.20
2018-08-22T13:59:35.762Z,4.27
2018-08-22T14:02:05.623Z,4.70
2018-08-22T14:04:34.320Z,3.63
2018-08-22T14:07:02.936Z,4.73
2018-08-22T14:09:31.768Z,6.17
2018-08-22T14:12:00.327Z,3.85
2018-08-22T14:14:28.962Z,3.90
2018-08-22T14:16:57.805Z,5.17
2018-08-22T14:19:26.421Z,4.70
2018-08-22T14:21:55.003Z,3.40
2018-08-22T14:24:23.872Z,3.62
2018-08-22T14:26:52.390Z,12.68
2018-08-22T14:29:20.966Z,4.10
2018-08-22T14:31:50.685Z,3.55
2018-08-22T14:34:19.386Z,3.77
2018-08-22T14:36:47.916Z,3.67
2018-08-22T14:39:16.834Z,4.15
2018-08-22T14:41:45.353Z,4.03
2018-08-22T14:44:13.879Z,3.90
2018-08-22T14:46:42.775Z,4.45
2018-08-22T14:49:11.431Z,6.50
2018-08-22T14:51:40.013Z,15.03
2018-08-22T14:54:08.841Z,4.00
2018-08-22T14:56:37.439Z,4.83
2018-08-22T14:59:06.339Z,11.90
2018-08-22T15:01:35.224Z,4.03
2018-08-22T15:04:04.448Z,12.23
2018-08-22T15:06:32.985Z,3.80
2018-08-22T15:09:07.079Z,6.50
2018-08-22T15:11:36.522Z,4.00
2018-08-22T15:14:06.683Z,7.55
2018-08-22T15:16:35.467Z,3.95
2018-08-22T15:19:04.041Z,3.42
2018-08-22T15:21:32.600Z,16.70
2018-08-22T15:24:01.185Z,4.05
2018-08-22T15:26:29.818Z,4.05
2018-08-22T15:28:58.631Z,5.58
2018-08-22T15:31:28.022Z,4.20
2018-08-22T15:33:56.797Z,4.45
2018-08-22T15:36:25.802Z,4.03
2018-08-22T15:38:54.333Z,4.55
2018-08-22T15:41:22.933Z,5.50
2018-08-22T15:43:51.867Z,4.03
2018-08-22T15:46:20.455Z,3.72
2018-08-22T15:48:48.942Z,3.95
2018-08-22T15:51:17.765Z,7.40
2018-08-22T15:54:00.226Z,4.00
2018-08-22T15:56:29.031Z,5.37
2018-08-22T15:58:57.773Z,7.03
2018-08-22T16:01:26.313Z,5.73
2018-08-22T16:03:55.113Z,10.47
2018-08-22T16:06:23.737Z,17.80
2018-08-22T16:08:52.329Z,4.07
2018-08-22T16:11:21.091Z,7.67
2018-08-22T16:13:49.915Z,4.90
2018-08-22T16:16:18.442Z,4.83
2018-08-22T16:18:47.403Z,4.93
2018-08-22T16:21:15.928Z,5.00
2018-08-22T16:23:44.696Z,12.93
2018-08-22T16:26:13.517Z,4.40
2018-08-22T16:28:53.477Z,11.13
2018-08-22T16:31:25.322Z,9.20
2018-08-22T16:33:53.952Z,4.40
2018-08-22T16:36:26.606Z,5.03
2018-08-22T16:38:55.149Z,5.07
2018-08-22T16:41:23.691Z,5.43
2018-08-22T16:43:52.826Z,5.63
2018-08-22T16:46:21.350Z,4.90
2018-08-22T16:48:51.413Z,5.00
2018-08-22T16:51:21.451Z,4.63
2018-08-22T16:53:57.757Z,4.50
2018-08-22T16:56:26.382Z,10.97
2018-08-22T16:58:59.199Z,5.50
2018-08-22T17:01:27.839Z,8.83
2018-08-22T17:03:56.495Z,10.90
2018-08-22T17:06:27.653Z,4.50
2018-08-22T17:08:56.856Z,11.17
2018-08-22T17:11:25.422Z,5.30
2018-08-22T17:13:54.659Z,5.33
2018-08-22T17:16:24.300Z,5.57
2018-08-22T17:18:52.808Z,7.93
2018-08-22T17:21:21.622Z,5.50
2018-08-22T17:23:50.463Z,5.57
2018-08-22T17:26:20.028Z,5.40
2018-08-22T17:28:51.003Z,5.90
2018-08-22T17:31:20.452Z,6.20
2018-08-22T17:33:49.896Z,6.37
2018-08-22T17:36:19.131Z,33.00
2018-08-22T17:38:48.942Z,6.67
2018-08-22T17:41:18.345Z,34.10
2018-08-22T17:44:05.912Z,15.80
2018-08-22T17:46:35.735Z,11.77
2018-08-22T17:49:04.705Z,10.10
2018-08-22T17:51:40.175Z,7.30
2018-08-22T17:54:08.750Z,9.80
2018-08-22T17:56:37.890Z,5.23
2018-08-22T17:59:06.412Z,5.10
2018-08-22T18:01:35.105Z,5.03
2018-08-22T18:04:05.215Z,11.27
2018-08-22T18:06:33.875Z,13.27
2018-08-22T18:09:03.879Z,6.00
2018-08-22T18:11:33.792Z,9.20
2018-08-22T18:14:04.235Z,8.33
2018-08-22T18:16:32.755Z,6.17
2018-08-22T18:19:01.603Z,6.83
2018-08-22T18:21:34.288Z,5.27
2018-08-22T18:24:03.441Z,7.13
2018-08-22T18:26:32.233Z,9.90
2018-08-22T18:29:00.938Z,7.87
2018-08-22T18:31:30.026Z,7.73
2018-08-22T18:34:01.260Z,11.93
2018-08-22T18:36:31.589Z,15.37
2018-08-22T18:39:05.345Z,18.17
2018-08-22T18:41:33.894Z,6.07
2018-08-22T18:44:04.019Z,8.10
2018-08-22T18:46:32.657Z,10.47
2018-08-22T18:49:01.859Z,17.10
2018-08-22T18:51:30.837Z,14.43
2018-08-22T18:53:59.707Z,23.20
2018-08-22T18:56:28.292Z,44.17
2018-08-22T18:58:57.244Z,24.70
2018-08-22T19:01:25.832Z,42.40
2018-08-22T19:03:56.516Z,53.93
2018-08-22T19:06:36.960Z,34.47
2018-08-22T19:09:10.816Z,18.93
2018-08-22T19:11:39.995Z,40.83
2018-08-22T19:14:08.536Z,9.93
2018-08-22T19:16:37.160Z,18.53
2018-08-22T19:19:05.981Z,9.87
2018-08-22T19:21:34.636Z,10.50
2018-08-22T19:24:05.908Z,19.63
2018-08-22T19:26:35.019Z,30.80
2018-08-22T19:29:05.729Z,11.80
2018-08-22T19:31:34.501Z,20.70
2018-08-22T19:34:05.082Z,21.17
2018-08-22T19:36:33.618Z,11.27
2018-08-22T19:39:02.504Z,21.73
2018-08-22T19:41:33.162Z,12.40
2018-08-22T19:44:01.736Z,19.00
2018-08-22T19:46:30.725Z,11.93
2018-08-22T19:49:00.558Z,20.67
2018-08-22T19:51:29.383Z,13.27
2018-08-22T19:54:03.732Z,16.93
2018-08-22T19:56:32.508Z,8.53
2018-08-22T19:59:01.770Z,20.40
2018-08-22T20:01:32.757Z,17.93
2018-08-22T20:04:01.570Z,14.17
2018-08-22T20:06:30.436Z,12.60
2018-08-22T20:08:59.878Z,8.63
2018-08-22T20:11:28.843Z,9.80
2018-08-22T20:13:59.815Z,17.07
2018-08-22T20:16:28.484Z,16.87
2018-08-22T20:18:59.144Z,10.50
2018-08-22T20:21:33.146Z,8.60
2018-08-22T20:24:03.402Z,10.30
2018-08-22T20:26:32.587Z,15.60
2018-08-22T20:29:02.740Z,12.10
2018-08-22T20:31:31.527Z,12.80
2018-08-22T20:34:09.843Z,17.90
2018-08-22T20:36:38.715Z,17.23
2018-08-22T20:39:10.166Z,21.30
2018-08-22T20:41:39.467Z,17.97
2018-08-22T20:44:10.595Z,15.33
2018-08-22T20:46:39.407Z,25.03
2018-08-22T20:49:08.007Z,16.10
2018-08-22T20:51:36.907Z,24.83
2018-08-22T20:54:07.880Z,24.70
2018-08-22T20:56:38.256Z,16.10
2018-08-22T20:59:07.077Z,14.67
2018-08-22T21:01:35.631Z,14.63
2018-08-22T21:04:06.658Z,15.00
2018-08-22T21:06:35.556Z,15.60
2018-08-22T21:09:04.999Z,12.87
2018-08-22T21:11:33.689Z,17.03
2018-08-22T21:14:03.462Z,15.50
2018-08-22T21:16:31.967Z,15.20
2018-08-22T21:19:00.499Z,10.03
2018-08-22T21:21:29.296Z,17.17
2018-08-22T21:23:57.919Z,16.87
2018-08-22T21:26:38.589Z,14.00
2018-08-22T21:29:07.515Z,10.00
2018-08-22T21:31:36.524Z,15.63
2018-08-22T21:34:12.915Z,13.20
2018-08-22T21:36:43.811Z,16.27
2018-08-22T21:39:17.587Z,16.23
2018-08-22T21:41:47.159Z,10.07
2018-08-22T21:44:20.087Z,12.43
2018-08-22T21:47:00.464Z,18.03
2018-08-22T21:49:29.783Z,10.87
2018-08-22T21:51:59.333Z,16.33
2018-08-22T21:54:28.091Z,11.77
2018-08-22T21:56:57.047Z,11.77
2018-08-22T21:59:25.581Z,15.63
2018-08-22T22:01:59.330Z,17.27
2018-08-22T22:04:34.308Z,12.73
2018-08-22T22:07:03.881Z,14.10
2018-08-22T22:09:32.483Z,14.93
2018-08-22T22:12:03.571Z,16.33
2018-08-22T22:14:33.826Z,13.67
2018-08-22T22:17:03.599Z,14.93
2018-08-22T22:19:33.376Z,16.93
2018-08-22T22:22:04.244Z,16.23
2018-08-22T22:24:34.122Z,18.43
2018-08-22T22:27:03.341Z,11.87
2018-08-22T22:29:32.868Z,18.60
2018-08-22T22:32:02.433Z,13.83
2018-08-22T22:34:31.428Z,15.73
2018-08-22T22:36:59.939Z,15.23
2018-08-22T22:39:42.897Z,10.67
2018-08-22T22:42:27.570Z,19.00
2018-08-22T22:44:57.859Z,17.83
2018-08-22T22:47:26.780Z,10.97
2018-08-22T22:49:56.234Z,10.27
2018-08-22T22:52:40.100Z,14.87
2018-08-22T22:55:09.588Z,16.50
2018-08-22T22:57:39.707Z,13.27
2018-08-22T23:00:11.446Z,15.73
2018-08-22T23:02:40.008Z,12.27
2018-08-22T23:05:09.255Z,11.10
2018-08-22T23:07:38.916Z,9.40
2018-08-22T23:10:09.768Z,11.30
2018-08-22T23:12:39.569Z,10.27
2018-08-22T23:15:10.636Z,11.13
2018-08-22T23:17:39.423Z,12.00
2018-08-22T23:20:29.222Z,10.03
2018-08-22T23:22:57.952Z,14.20
2018-08-22T23:25:26.758Z,9.33
2018-08-22T23:27:55.616Z,7.23
2018-08-22T23:30:28.248Z,9.33
2018-08-22T23:32:56.861Z,11.70
2018-08-22T23:35:29.416Z,15.47
2018-08-22T23:37:59.081Z,14.73
2018-08-22T23:40:28.626Z,14.90
2018-08-22T23:42:57.241Z,9.80
2018-08-22T23:45:25.784Z,11.43
2018-08-22T23:47:54.661Z,20.50
2018-08-22T23:50:23.241Z,6.80
2018-08-22T23:52:53.012Z,12.47
2018-08-22T23:55:22.696Z,7.87
2018-08-22T23:57:53.262Z,8.60
